Time;durP1;ratioP1;P1;durP2;ratioP2;P2;SDS_P1;SDS_P2;PMS_P1;PMS_P2;Temp;Humidity;BMP_temperature;BMP_pressure;BME280_temperature;BME280_humidity;BME280_pressure;Samples;Min_cycle;Max_cycle;Signal;HPM_P1;HPM_P2
2021/05/07 00:03:09;;;;;;;11.73;2.10;;;;;;;;;;6943207;28;20515;-82
2021/05/07 00:06:29;;;;;;;4.97;2.00;;;;;;;;;;6943691;28;20117;-83
2021/05/07 00:09:50;;;;;;;4.53;1.67;;;;;;;;;;6943106;28;20036;-84
2021/05/07 00:13:10;;;;;;;7.85;1.80;;;;;;;;;;6943437;28;20120;-83
2021/05/07 00:16:30;;;;;;;5.60;1.75;;;;;;;;;;6942949;28;20036;-84
2021/05/07 00:19:51;;;;;;;4.88;1.95;;;;;;;;;;6942712;28;20120;-83
2021/05/07 00:23:11;;;;;;;8.43;2.10;;;;;;;;;;6942906;28;20118;-83
2021/05/07 00:26:32;;;;;;;4.90;1.88;;;;;;;;;;6943529;28;20112;-82
2021/05/07 00:29:52;;;;;;;7.78;2.08;;;;;;;;;;6991758;22;20064;-81
2021/05/07 00:33:13;;;;;;;4.95;2.00;;;;;;;;;;6917015;28;20092;-81
2021/05/07 00:36:33;;;;;;;6.95;2.10;;;;;;;;;;6915911;28;20037;-81
2021/05/07 00:39:54;;;;;;;6.18;1.50;;;;;;;;;;6915887;28;20033;-81
2021/05/07 00:43:14;;;;;;;5.65;2.00;;;;;;;;;;6915268;28;20114;-81
2021/05/07 00:46:37;;;;;;;5.75;1.63;;;;;;;;;;6915991;28;20026;-81
2021/05/07 00:49:57;;;;;;;6.35;1.83;;;;;;;;;;6916110;28;20072;-81
2021/05/07 00:53:20;;;;;;;3.10;1.50;;;;;;;;;;6916207;28;20053;-81
2021/05/07 00:56:40;;;;;;;5.72;1.80;;;;;;;;;;6915737;28;20029;-81
2021/05/07 01:00:02;;;;;;;7.55;1.60;;;;;;;;;;6914919;28;20034;-81
2021/05/07 01:03:22;;;;;;;4.45;1.55;;;;;;;;;;6915846;28;20034;-82
2021/05/07 01:06:43;;;;;;;3.42;1.70;;;;;;;;;;6915405;28;20345;-82
2021/05/07 01:10:05;;;;;;;5.68;1.73;;;;;;;;;;6914085;28;20505;-82
2021/05/07 01:13:26;;;;;;;9.25;2.60;;;;;;;;;;6913742;28;20480;-82
2021/05/07 01:16:46;;;;;;;3.85;1.63;;;;;;;;;;6915347;28;20033;-82
2021/05/07 01:20:14;;;;;;;5.90;1.90;;;;;;;;;;6914580;28;20156;-82
2021/05/07 01:23:35;;;;;;;4.18;1.48;;;;;;;;;;6914155;28;20053;-82
2021/05/07 01:26:56;;;;;;;4.88;1.80;;;;;;;;;;6914731;28;20399;-82
2021/05/07 01:30:21;;;;;;;5.95;1.70;;;;;;;;;;6938476;28;20049;-82
2021/05/07 01:33:41;;;;;;;2.42;1.75;;;;;;;;;;6946862;28;20073;-82
2021/05/07 01:37:02;;;;;;;4.70;1.80;;;;;;;;;;6947532;28;20359;-81
2021/05/07 01:40:31;;;;;;;3.42;1.38;;;;;;;;;;6946536;28;20064;-82
2021/05/07 01:43:51;;;;;;;3.28;1.50;;;;;;;;;;6946921;28;20029;-81
2021/05/07 01:47:12;;;;;;;3.95;1.70;;;;;;;;;;6946419;28;20034;-81
2021/05/07 01:50:35;;;;;;;4.40;1.65;;;;;;;;;;6945474;28;20124;-81
2021/05/07 01:53:55;;;;;;;4.90;1.55;;;;;;;;;;6928816;28;20112;-81
2021/05/07 01:57:16;;;;;;;4.82;1.50;;;;;;;;;;6945872;28;20041;-81
2021/05/07 02:00:38;;;;;;;4.47;1.80;;;;;;;;;;6946498;28;20037;-81
2021/05/07 02:03:59;;;;;;;1.80;1.30;;;;;;;;;;6946344;28;20022;-81
2021/05/07 02:07:19;;;;;;;5.53;1.45;;;;;;;;;;6946263;28;20112;-81
2021/05/07 02:10:40;;;;;;;5.63;1.70;;;;;;;;;;6945138;28;20371;-82
2021/05/07 02:14:00;;;;;;;3.53;1.50;;;;;;;;;;6945955;28;20033;-81
2021/05/07 02:17:21;;;;;;;3.13;1.20;;;;;;;;;;6944623;28;20029;-81
2021/05/07 02:20:43;;;;;;;3.53;1.50;;;;;;;;;;6945506;28;20159;-81
2021/05/07 02:24:04;;;;;;;5.47;1.48;;;;;;;;;;6927938;28;20468;-81
2021/05/07 02:27:25;;;;;;;2.75;1.73;;;;;;;;;;6945943;28;20112;-81
2021/05/07 02:30:45;;;;;;;4.65;1.73;;;;;;;;;;6943693;28;20046;-82
2021/05/07 02:34:06;;;;;;;2.70;1.58;;;;;;;;;;6945748;28;20061;-82
2021/05/07 02:37:26;;;;;;;2.58;1.33;;;;;;;;;;6945065;28;20033;-82
2021/05/07 02:40:46;;;;;;;1.80;1.48;;;;;;;;;;6944531;28;20037;-82
2021/05/07 02:44:07;;;;;;;5.85;1.50;;;;;;;;;;6945505;28;20113;-83
2021/05/07 02:47:27;;;;;;;2.72;1.60;;;;;;;;;;6943829;28;20034;-82
2021/05/07 02:50:48;;;;;;;1.75;1.25;;;;;;;;;;6945011;28;20068;-82
2021/05/07 02:54:08;;;;;;;2.58;1.33;;;;;;;;;;6944659;28;20056;-82
2021/05/07 02:57:28;;;;;;;3.28;1.60;;;;;;;;;;6945664;28;20546;-82
2021/05/07 03:00:49;;;;;;;2.30;1.50;;;;;;;;;;6944664;28;20498;-82
2021/05/07 03:08:26;;;;;;;3.40;1.58;;;;;;;;;;6944655;28;20029;-82
2021/05/07 03:11:46;;;;;;;4.25;1.63;;;;;;;;;;6926995;28;20528;-82
2021/05/07 03:15:07;;;;;;;5.57;1.75;;;;;;;;;;6944276;28;20034;-83
2021/05/07 03:18:28;;;;;;;3.72;1.40;;;;;;;;;;6942905;28;20034;-82
2021/05/07 03:21:48;;;;;;;3.65;1.65;;;;;;;;;;6944044;28;20520;-82
2021/05/07 03:25:09;;;;;;;2.38;1.40;;;;;;;;;;6943856;28;20041;-83
2021/05/07 03:28:29;;;;;;;2.25;1.40;;;;;;;;;;6943700;28;20058;-83
2021/05/07 03:31:50;;;;;;;1.85;1.52;;;;;;;;;;6926007;28;20045;-82
2021/05/07 03:35:10;;;;;;;3.70;1.65;;;;;;;;;;6943291;28;20052;-82
2021/05/07 03:38:31;;;;;;;1.35;1.20;;;;;;;;;;6943418;28;20025;-82
2021/05/07 03:41:52;;;;;;;2.60;1.20;;;;;;;;;;6943145;28;20054;-82
2021/05/07 03:45:14;;;;;;;3.67;1.75;;;;;;;;;;6943649;28;20061;-82
2021/05/07 03:48:34;;;;;;;2.08;1.55;;;;;;;;;;6942198;28;20443;-82
2021/05/07 03:51:55;;;;;;;1.75;1.38;;;;;;;;;;6942232;28;20072;-82
2021/05/07 03:55:15;;;;;;;2.80;1.40;;;;;;;;;;6942685;28;20037;-82
2021/05/07 03:58:35;;;;;;;1.83;1.27;;;;;;;;;;6943681;28;20151;-82
2021/05/07 04:01:56;;;;;;;1.67;1.58;;;;;;;;;;6942939;28;20037;-82
2021/05/07 04:05:16;;;;;;;4.28;1.65;;;;;;;;;;6943307;28;20442;-82
2021/05/07 04:08:41;;;;;;;2.10;1.30;;;;;;;;;;6942757;28;20025;-82
2021/05/07 04:12:14;;;;;;;2.15;1.40;;;;;;;;;;6943170;28;20037;-83
2021/05/07 04:15:34;;;;;;;3.95;1.25;;;;;;;;;;6943102;28;20467;-82
2021/05/07 04:18:55;;;;;;;2.92;1.40;;;;;;;;;;6942201;28;20064;-82
2021/05/07 04:22:16;;;;;;;1.40;1.30;;;;;;;;;;6941654;28;20036;-82
2021/05/07 04:25:36;;;;;;;1.65;1.52;;;;;;;;;;6942980;28;20057;-83
2021/05/07 04:28:57;;;;;;;1.30;1.20;;;;;;;;;;6942849;28;20049;-84
2021/05/07 04:32:17;;;;;;;1.67;1.20;;;;;;;;;;6943508;28;20119;-84
2021/05/07 04:35:37;;;;;;;2.33;1.50;;;;;;;;;;6942587;28;20374;-83
2021/05/07 04:38:58;;;;;;;2.38;1.33;;;;;;;;;;6943011;28;20052;-83
2021/05/07 04:42:19;;;;;;;2.10;1.73;;;;;;;;;;6941657;28;20038;-83
2021/05/07 04:45:40;;;;;;;1.35;1.20;;;;;;;;;;6943317;28;20482;-84
2021/05/07 04:49:00;;;;;;;3.05;1.35;;;;;;;;;;6942866;28;20029;-84
2021/05/07 04:52:21;;;;;;;2.85;1.60;;;;;;;;;;6942700;28;20121;-84
2021/05/07 04:55:41;;;;;;;2.15;1.50;;;;;;;;;;6942433;28;20374;-83
2021/05/07 04:59:01;;;;;;;2.58;1.25;;;;;;;;;;6942680;28;20034;-83
2021/05/07 05:02:22;;;;;;;1.77;1.60;;;;;;;;;;6944165;28;20037;-84
2021/05/07 05:05:42;;;;;;;2.33;1.63;;;;;;;;;;6947688;28;20363;-84
2021/05/07 05:09:03;;;;;;;4.55;1.10;;;;;;;;;;6915923;28;20510;-86
2021/05/07 05:12:23;;;;;;;2.40;1.38;;;;;;;;;;6947676;28;20033;-83
2021/05/07 05:15:44;;;;;;;1.50;1.40;;;;;;;;;;6947329;28;20029;-91
2021/05/07 05:19:04;;;;;;;2.15;1.13;;;;;;;;;;6946907;28;20455;-90
2021/05/07 05:22:25;;;;;;;2.13;1.45;;;;;;;;;;6946726;28;20029;-93
2021/05/07 05:25:46;;;;;;;1.55;1.35;;;;;;;;;;6946526;28;20073;-90
2021/05/07 05:29:09;;;;;;;1.83;1.17;;;;;;;;;;6946761;28;20448;-88
2021/05/07 05:32:30;;;;;;;2.67;1.45;;;;;;;;;;6946830;28;20038;-88
2021/05/07 05:35:50;;;;;;;3.40;3.10;;;;;;;;;;6947286;28;20100;-88
2021/05/07 05:39:10;;;;;;;3.00;2.70;;;;;;;;;;6946465;28;20523;-87
2021/05/07 05:42:31;;;;;;;2.90;2.60;;;;;;;;;;6946983;28;20037;-86
2021/05/07 05:45:51;;;;;;;7.78;7.22;;;;;;;;;;6946705;28;20029;-84
2021/05/07 05:49:12;;;;;;;7.70;7.10;;;;;;;;;;6945988;28;20053;-91
2021/05/07 05:52:33;;;;;;;7.25;6.65;;;;;;;;;;6912411;28;20071;-92
2021/05/07 05:55:57;;;;;;;2.10;1.60;;;;;;;;;;6911560;28;20030;-91
2021/05/07 05:59:17;;;;;;;2.17;1.52;;;;;;;;;;6908047;28;20064;-90
2021/05/07 06:02:40;;;;;;;1.60;1.50;;;;;;;;;;6905844;28;20030;-93
2021/05/07 06:06:01;;;;;;;2.65;1.90;;;;;;;;;;6909012;28;20108;-89
2021/05/07 06:09:21;;;;;;;4.18;1.67;;;;;;;;;;6945783;28;20038;-89
2021/05/07 06:12:43;;;;;;;1.90;1.55;;;;;;;;;;6927096;28;20125;-90
2021/05/07 06:16:04;;;;;;;8.35;1.83;;;;;;;;;;6944954;28;20033;-91
2021/05/07 06:19:24;;;;;;;1.77;1.48;;;;;;;;;;6946286;28;20076;-92
2021/05/07 06:22:46;;;;;;;3.13;1.77;;;;;;;;;;6927387;28;20485;-94
2021/05/07 06:26:06;;;;;;;7.53;1.55;;;;;;;;;;6923350;28;20045;-95
2021/05/07 06:29:27;;;;;;;2.50;1.65;;;;;;;;;;6925054;28;20077;-93
2021/05/07 06:32:48;;;;;;;2.22;1.55;;;;;;;;;;6923792;28;20068;-94
2021/05/07 06:36:11;;;;;;;2.65;1.55;;;;;;;;;;6929011;28;20044;-95
2021/05/07 06:39:32;;;;;;;3.53;1.80;;;;;;;;;;6901601;28;20033;-94
2021/05/07 06:42:54;;;;;;;2.55;1.70;;;;;;;;;;6932323;28;20115;-95
2021/05/07 06:46:15;;;;;;;1.80;1.60;;;;;;;;;;6927451;28;20087;-93
2021/05/07 06:49:35;;;;;;;1.77;1.63;;;;;;;;;;6943188;28;20120;-92
2021/05/07 06:52:56;;;;;;;1.63;1.40;;;;;;;;;;6910203;28;20473;-94
2021/05/07 06:56:20;;;;;;;3.10;1.80;;;;;;;;;;6911846;28;20124;-94
2021/05/07 06:59:43;;;;;;;2.20;1.67;;;;;;;;;;6900032;28;20040;-93
2021/05/07 07:03:04;;;;;;;2.13;1.80;;;;;;;;;;6900037;28;20117;-92
2021/05/07 07:06:24;;;;;;;2.28;1.50;;;;;;;;;;6908119;28;20036;-92
2021/05/07 07:09:45;;;;;;;1.65;1.55;;;;;;;;;;6922171;28;20029;-87
2021/05/07 07:13:05;;;;;;;6.72;1.23;;;;;;;;;;6945056;28;20116;-85
2021/05/07 07:16:26;;;;;;;14.05;3.38;;;;;;;;;;6938044;28;20026;-85
2021/05/07 07:19:47;;;;;;;8.63;2.83;;;;;;;;;;6919237;28;20032;-86
2021/05/07 07:23:07;;;;;;;13.15;3.30;;;;;;;;;;6943429;28;20033;-85
2021/05/07 07:26:28;;;;;;;10.32;3.33;;;;;;;;;;6943753;28;20423;-85
2021/05/07 07:29:48;;;;;;;13.68;3.35;;;;;;;;;;6913820;28;20042;-84
2021/05/07 07:33:09;;;;;;;20.90;3.47;;;;;;;;;;6938416;28;20122;-84
2021/05/07 07:36:29;;;;;;;15.43;4.18;;;;;;;;;;6942984;28;20029;-85
2021/05/07 07:39:49;;;;;;;11.93;3.20;;;;;;;;;;6942318;28;20120;-84
2021/05/07 07:43:10;;;;;;;24.60;3.53;;;;;;;;;;6941748;28;20116;-85
2021/05/07 07:46:30;;;;;;;16.77;4.32;;;;;;;;;;6939677;28;20021;-85
2021/05/07 07:49:51;;;;;;;12.48;3.72;;;;;;;;;;6935652;28;20159;-87
2021/05/07 07:53:11;;;;;;;13.23;4.20;;;;;;;;;;6940666;28;20109;-82
2021/05/07 07:56:32;;;;;;;10.35;3.72;;;;;;;;;;6939006;28;20099;-82
2021/05/07 07:59:53;;;;;;;11.23;3.28;;;;;;;;;;6940003;28;20049;-81
2021/05/07 08:03:14;;;;;;;12.70;4.47;;;;;;;;;;6934714;28;20075;-83
2021/05/07 08:06:34;;;;;;;9.45;3.03;;;;;;;;;;6940822;28;20025;-81
2021/05/07 08:09:55;;;;;;;13.00;3.67;;;;;;;;;;6942315;28;20028;-82
2021/05/07 08:13:15;;;;;;;12.00;4.10;;;;;;;;;;6942203;28;20121;-85
2021/05/07 08:16:36;;;;;;;13.15;3.35;;;;;;;;;;6941619;28;20029;-87
2021/05/07 08:19:56;;;;;;;9.98;3.42;;;;;;;;;;6940491;28;20108;-83
2021/05/07 08:23:16;;;;;;;8.18;3.10;;;;;;;;;;6942116;28;20092;-81
2021/05/07 08:26:37;;;;;;;9.65;2.80;;;;;;;;;;6939033;28;20037;-81
2021/05/07 08:29:58;;;;;;;11.25;2.58;;;;;;;;;;6941818;28;20541;-82
2021/05/07 08:33:18;;;;;;;8.40;2.42;;;;;;;;;;6941771;28;20538;-82
2021/05/07 08:36:38;;;;;;;7.93;2.80;;;;;;;;;;6944921;28;20521;-82
2021/05/07 08:39:59;;;;;;;8.60;2.63;;;;;;;;;;6950051;28;20029;-82
2021/05/07 08:43:19;;;;;;;8.25;2.63;;;;;;;;;;6948646;28;20156;-81
2021/05/07 08:46:41;;;;;;;6.18;2.50;;;;;;;;;;6949791;28;20041;-81
2021/05/07 08:50:03;;;;;;;6.30;2.08;;;;;;;;;;6936907;28;20104;-81
2021/05/07 08:53:26;;;;;;;12.23;2.75;;;;;;;;;;6944106;28;20045;-83
2021/05/07 08:56:46;;;;;;;7.28;2.55;;;;;;;;;;6946270;28;20039;-80
2021/05/07 09:00:09;;;;;;;6.85;2.38;;;;;;;;;;6942856;28;20029;-81
2021/05/07 09:03:42;;;;;;;9.35;2.20;;;;;;;;;;6945780;28;20037;-83
2021/05/07 09:07:11;;;;;;;10.73;2.25;;;;;;;;;;6944446;28;20040;-81
2021/05/07 09:10:46;;;;;;;4.00;2.20;;;;;;;;;;6949137;28;20374;-80
2021/05/07 09:14:06;;;;;;;6.88;2.00;;;;;;;;;;6948747;28;20029;-80
2021/05/07 09:17:29;;;;;;;6.20;2.25;;;;;;;;;;6948008;28;20076;-82
2021/05/07 09:20:50;;;;;;;4.85;1.80;;;;;;;;;;6944617;28;20029;-82
2021/05/07 09:24:10;;;;;;;6.63;2.03;;;;;;;;;;6947295;28;20028;-81
2021/05/07 09:27:31;;;;;;;9.30;2.47;;;;;;;;;;6948555;28;20025;-83
2021/05/07 09:30:51;;;;;;;6.50;2.40;;;;;;;;;;6921103;28;20065;-83
2021/05/07 09:34:12;;;;;;;7.32;2.67;;;;;;;;;;6944719;28;20171;-83
2021/05/07 09:37:32;;;;;;;5.45;2.03;;;;;;;;;;6952541;28;20053;-82
2021/05/07 09:40:55;;;;;;;8.65;2.05;;;;;;;;;;6949179;28;20467;-81
2021/05/07 09:44:18;;;;;;;14.32;2.10;;;;;;;;;;6929975;28;20518;-84
2021/05/07 09:47:38;;;;;;;6.60;2.45;;;;;;;;;;6927966;28;20034;-81
2021/05/07 09:51:05;;;;;;;5.22;2.17;;;;;;;;;;6948977;28;20069;-82
2021/05/07 09:54:26;;;;;;;11.57;2.13;;;;;;;;;;6948111;28;20042;-82
2021/05/07 09:57:47;;;;;;;6.20;2.17;;;;;;;;;;6913160;28;20467;-83
2021/05/07 10:01:07;;;;;;;4.70;2.25;;;;;;;;;;6942484;28;20049;-82
2021/05/07 10:04:28;;;;;;;7.05;2.78;;;;;;;;;;6946561;28;20049;-84
2021/05/07 10:07:48;;;;;;;12.02;3.30;;;;;;;;;;6920882;28;20185;-82
2021/05/07 10:11:10;;;;;;;12.27;4.80;;;;;;;;;;6947293;28;20064;-83
2021/05/07 10:14:30;;;;;;;21.88;6.40;;;;;;;;;;6947031;28;20041;-80
2021/05/07 10:17:51;;;;;;;16.77;5.82;;;;;;;;;;6947692;28;20386;-81
2021/05/07 10:21:12;;;;;;;20.05;5.95;;;;;;;;;;6944324;28;20435;-80
2021/05/07 10:24:36;;;;;;;10.48;4.43;;;;;;;;;;6945119;28;20052;-81
2021/05/07 10:27:56;;;;;;;15.20;5.43;;;;;;;;;;6926768;28;20108;-82
2021/05/07 10:31:18;;;;;;;18.77;5.03;;;;;;;;;;6927523;28;20395;-80
2021/05/07 10:34:42;;;;;;;13.23;5.18;;;;;;;;;;6925284;28;20033;-80
2021/05/07 10:38:22;;;;;;;13.18;4.95;;;;;;;;;;6931218;28;20459;-81
2021/05/07 10:41:42;;;;;;;11.80;3.90;;;;;;;;;;6894992;28;20042;-81
2021/05/07 10:45:04;;;;;;;14.27;4.38;;;;;;;;;;6944142;28;20027;-81
2021/05/07 10:48:25;;;;;;;13.75;3.97;;;;;;;;;;6943276;28;20021;-80
2021/05/07 10:51:56;;;;;;;9.68;3.58;;;;;;;;;;6942383;28;20061;-80
2021/05/07 10:55:16;;;;;;;9.18;4.32;;;;;;;;;;6942391;28;20379;-81
2021/05/07 10:58:37;;;;;;;9.30;3.95;;;;;;;;;;6933923;28;20526;-80
2021/05/07 11:02:04;;;;;;;8.82;3.88;;;;;;;;;;6935494;28;20048;-81
2021/05/07 11:05:38;;;;;;;15.95;4.70;;;;;;;;;;6938046;28;20049;-80
2021/05/07 11:08:59;;;;;;;12.57;5.35;;;;;;;;;;6941829;28;20035;-81
2021/05/07 11:12:21;;;;;;;8.85;4.00;;;;;;;;;;6942803;28;20033;-80
2021/05/07 11:15:41;;;;;;;9.05;4.43;;;;;;;;;;6940020;28;20041;-81
2021/05/07 11:19:02;;;;;;;15.93;4.85;;;;;;;;;;6924904;28;20169;-81
2021/05/07 11:22:26;;;;;;;13.40;3.63;;;;;;;;;;6943436;28;20029;-80
2021/05/07 11:25:46;;;;;;;16.48;4.70;;;;;;;;;;6940486;28;20037;-81
2021/05/07 11:29:07;;;;;;;16.02;5.43;;;;;;;;;;6943681;28;20054;-80
2021/05/07 11:32:28;;;;;;;13.98;4.82;;;;;;;;;;6939271;28;20120;-80
2021/05/07 11:36:06;;;;;;;12.82;4.32;;;;;;;;;;6941800;28;20065;-80
2021/05/07 11:39:27;;;;;;;15.15;4.68;;;;;;;;;;6941204;28;20033;-80
2021/05/07 11:42:48;;;;;;;13.48;3.75;;;;;;;;;;6942021;28;20072;-80
2021/05/07 11:46:09;;;;;;;12.93;3.53;;;;;;;;;;6918328;28;20379;-80
2021/05/07 11:49:29;;;;;;;8.68;3.50;;;;;;;;;;6941573;28;20064;-79
2021/05/07 11:52:50;;;;;;;11.43;4.30;;;;;;;;;;6940298;28;20473;-78
2021/05/07 11:56:22;;;;;;;9.38;4.00;;;;;;;;;;6941782;28;20030;-79
2021/05/07 11:59:50;;;;;;;8.32;3.53;;;;;;;;;;6939975;28;20033;-79
2021/05/07 12:03:12;;;;;;;7.90;2.95;;;;;;;;;;6942020;28;20083;-80
2021/05/07 12:06:32;;;;;;;13.27;3.60;;;;;;;;;;6940945;28;20029;-79
2021/05/07 12:09:55;;;;;;;19.83;3.97;;;;;;;;;;6941624;28;20072;-79
2021/05/07 12:13:23;;;;;;;9.48;3.22;;;;;;;;;;6940977;28;20040;-80
2021/05/07 12:16:43;;;;;;;12.65;3.50;;;;;;;;;;6939070;28;20034;-83
2021/05/07 12:20:04;;;;;;;11.05;2.63;;;;;;;;;;6938480;28;20124;-79
2021/05/07 12:23:25;;;;;;;13.50;2.95;;;;;;;;;;6941285;28;20026;-78
2021/05/07 12:26:50;;;;;;;21.45;3.53;;;;;;;;;;6942006;28;20029;-79
2021/05/07 12:30:32;;;;;;;15.88;3.05;;;;;;;;;;6909608;23;20059;-79
2021/05/07 12:33:53;;;;;;;24.35;3.55;;;;;;;;;;6865705;28;20038;-79
2021/05/07 12:37:14;;;;;;;17.20;2.85;;;;;;;;;;6863320;28;20046;-80
2021/05/07 12:40:34;;;;;;;13.20;3.50;;;;;;;;;;6873572;28;20086;-79
2021/05/07 12:43:57;;;;;;;31.70;4.07;;;;;;;;;;6864419;28;20110;-79
2021/05/07 12:47:17;;;;;;;15.85;2.70;;;;;;;;;;6872991;28;20125;-80
2021/05/07 12:50:37;;;;;;;19.90;3.35;;;;;;;;;;6866931;28;20649;-79
2021/05/07 12:53:58;;;;;;;16.73;3.47;;;;;;;;;;6862862;28;20031;-79
2021/05/07 12:57:18;;;;;;;11.85;3.08;;;;;;;;;;6862189;28;20038;-78
2021/05/07 13:00:41;;;;;;;12.40;2.95;;;;;;;;;;6861163;28;20037;-79
2021/05/07 13:04:01;;;;;;;12.40;2.80;;;;;;;;;;6862227;28;20508;-79
2021/05/07 13:07:22;;;;;;;13.43;3.33;;;;;;;;;;6860337;28;20339;-79
2021/05/07 13:10:42;;;;;;;10.68;3.30;;;;;;;;;;6854699;28;20034;-79
2021/05/07 13:14:04;;;;;;;9.60;2.90;;;;;;;;;;6856456;28;20113;-79
2021/05/07 13:17:24;;;;;;;15.68;3.17;;;;;;;;;;6864724;28;20038;-79
2021/05/07 13:20:45;;;;;;;7.38;2.85;;;;;;;;;;6870611;28;20117;-79
2021/05/07 13:24:08;;;;;;;12.95;3.58;;;;;;;;;;6863102;28;20377;-79
2021/05/07 13:27:28;;;;;;;8.20;3.72;;;;;;;;;;6870067;28;20456;-79
2021/05/07 13:30:48;;;;;;;10.98;2.92;;;;;;;;;;6891022;28;20178;-79
2021/05/07 13:34:09;;;;;;;11.20;3.00;;;;;;;;;;6891516;28;20074;-80
2021/05/07 13:37:29;;;;;;;10.27;3.25;;;;;;;;;;6892393;28;20134;-80
2021/05/07 13:40:52;;;;;;;16.00;3.85;;;;;;;;;;6902031;28;20482;-79
2021/05/07 13:44:12;;;;;;;17.90;5.20;;;;;;;;;;6894881;28;20039;-79
2021/05/07 13:47:33;;;;;;;14.93;4.72;;;;;;;;;;6892515;28;20113;-79
2021/05/07 13:50:53;;;;;;;22.60;4.70;;;;;;;;;;6891820;28;20062;-78
2021/05/07 13:54:13;;;;;;;14.27;4.20;;;;;;;;;;6893845;28;20057;-78
2021/05/07 13:57:34;;;;;;;22.48;5.28;;;;;;;;;;6904582;28;20109;-78
2021/05/07 14:00:55;;;;;;;11.82;4.07;;;;;;;;;;6892762;28;20158;-79
2021/05/07 14:04:16;;;;;;;13.40;4.30;;;;;;;;;;6892000;28;20484;-79
2021/05/07 14:07:36;;;;;;;10.52;3.85;;;;;;;;;;6892361;28;20030;-81
2021/05/07 14:10:57;;;;;;;11.68;3.30;;;;;;;;;;6893445;28;20440;-81
2021/05/07 14:14:17;;;;;;;10.65;3.20;;;;;;;;;;6904506;28;20453;-81
2021/05/07 14:17:39;;;;;;;13.85;3.10;;;;;;;;;;6902800;28;20875;-81
2021/05/07 14:20:59;;;;;;;11.15;3.53;;;;;;;;;;6893485;28;20026;-81
2021/05/07 14:24:19;;;;;;;8.93;2.88;;;;;;;;;;6906860;28;20033;-81
2021/05/07 14:27:40;;;;;;;13.43;3.15;;;;;;;;;;6892983;28;21331;-81
2021/05/07 14:31:00;;;;;;;8.20;3.33;;;;;;;;;;6898275;28;20130;-81
2021/05/07 14:34:21;;;;;;;12.63;3.58;;;;;;;;;;6896115;28;20061;-81
2021/05/07 14:37:41;;;;;;;7.72;2.50;;;;;;;;;;6905325;28;20043;-81
2021/05/07 14:41:01;;;;;;;8.18;2.83;;;;;;;;;;6892479;28;20089;-81
2021/05/07 14:44:22;;;;;;;6.38;2.75;;;;;;;;;;6892634;28;20692;-81
2021/05/07 14:47:42;;;;;;;10.35;3.08;;;;;;;;;;6892517;28;20054;-81
2021/05/07 14:51:03;;;;;;;8.07;2.33;;;;;;;;;;6899318;28;20031;-81
2021/05/07 14:54:24;;;;;;;4.75;2.40;;;;;;;;;;6891841;28;20383;-81
2021/05/07 14:57:44;;;;;;;8.40;2.83;;;;;;;;;;6893319;28;20046;-81
2021/05/07 15:01:05;;;;;;;10.90;2.72;;;;;;;;;;6891924;28;20030;-81
2021/05/07 15:04:25;;;;;;;10.82;3.00;;;;;;;;;;6892236;28;20030;-81
2021/05/07 15:07:46;;;;;;;8.40;2.33;;;;;;;;;;6892120;28;20448;-81
2021/05/07 15:11:06;;;;;;;8.27;2.67;;;;;;;;;;6891832;28;20053;-81
2021/05/07 15:14:27;;;;;;;6.88;3.00;;;;;;;;;;6890769;28;20520;-81
2021/05/07 15:17:47;;;;;;;8.75;2.80;;;;;;;;;;6890794;28;20026;-81
2021/05/07 15:21:08;;;;;;;7.97;2.72;;;;;;;;;;6890873;28;20069;-80
2021/05/07 15:24:28;;;;;;;5.28;2.60;;;;;;;;;;6874305;28;20038;-81
2021/05/07 15:27:48;;;;;;;11.68;2.47;;;;;;;;;;6892002;28;20081;-81
2021/05/07 15:31:10;;;;;;;10.82;2.70;;;;;;;;;;6893410;28;20050;-82
2021/05/07 15:34:30;;;;;;;4.43;1.95;;;;;;;;;;6900237;28;20038;-81
2021/05/07 15:37:51;;;;;;;4.85;2.10;;;;;;;;;;6889712;28;20072;-83
2021/05/07 15:41:11;;;;;;;9.95;2.60;;;;;;;;;;6888951;28;20062;-81
2021/05/07 15:44:32;;;;;;;8.30;2.15;;;;;;;;;;6900883;28;20038;-81
2021/05/07 15:47:52;;;;;;;5.80;2.30;;;;;;;;;;6892773;28;20102;-81
2021/05/07 15:51:13;;;;;;;7.97;2.45;;;;;;;;;;6900697;28;20046;-81
2021/05/07 15:54:34;;;;;;;5.97;2.58;;;;;;;;;;6904584;28;20033;-81
2021/05/07 15:57:55;;;;;;;10.73;2.50;;;;;;;;;;6901384;28;20034;-81
2021/05/07 16:01:15;;;;;;;5.95;2.38;;;;;;;;;;6905236;28;20133;-81
2021/05/07 16:04:36;;;;;;;5.32;2.13;;;;;;;;;;6895043;28;20092;-86
2021/05/07 16:07:57;;;;;;;3.67;2.03;;;;;;;;;;6894766;28;20034;-82
2021/05/07 16:11:17;;;;;;;9.40;2.15;;;;;;;;;;6890281;28;20472;-82
2021/05/07 16:14:38;;;;;;;8.10;2.35;;;;;;;;;;6889634;28;20132;-83
2021/05/07 16:17:59;;;;;;;4.38;2.03;;;;;;;;;;6890291;28;20506;-83
2021/05/07 16:21:19;;;;;;;5.70;2.28;;;;;;;;;;6889800;28;20026;-82
2021/05/07 16:24:40;;;;;;;7.97;2.58;;;;;;;;;;6897158;28;20403;-82
2021/05/07 16:28:00;;;;;;;6.75;2.30;;;;;;;;;;6902612;28;20176;-82
2021/05/07 16:31:22;;;;;;;8.77;2.00;;;;;;;;;;6900925;28;20080;-82
2021/05/07 16:34:43;;;;;;;5.88;2.50;;;;;;;;;;6889820;28;20121;-83
2021/05/07 16:38:13;;;;;;;2.75;1.70;;;;;;;;;;6888544;28;20042;-82
2021/05/07 16:41:33;;;;;;;4.38;2.22;;;;;;;;;;6878176;28;20058;-82
2021/05/07 16:44:54;;;;;;;6.90;2.22;;;;;;;;;;6892872;28;20065;-82
2021/05/07 16:48:14;;;;;;;6.25;2.28;;;;;;;;;;6889511;28;20214;-82
2021/05/07 16:51:37;;;;;;;5.60;2.13;;;;;;;;;;6895489;28;20042;-82
2021/05/07 16:54:58;;;;;;;6.40;1.90;;;;;;;;;;6889742;28;20456;-82
2021/05/07 16:58:18;;;;;;;7.25;2.25;;;;;;;;;;6891981;28;20068;-82
2021/05/07 17:01:39;;;;;;;4.95;2.08;;;;;;;;;;6894337;28;20031;-82
2021/05/07 17:04:59;;;;;;;5.80;1.92;;;;;;;;;;6895919;28;20045;-82
2021/05/07 17:08:20;;;;;;;5.18;2.10;;;;;;;;;;6893190;28;20484;-83
2021/05/07 17:11:40;;;;;;;4.43;2.15;;;;;;;;;;6894707;28;20472;-83
2021/05/07 17:15:01;;;;;;;10.27;2.05;;;;;;;;;;6893963;28;20117;-83
2021/05/07 17:18:21;;;;;;;5.97;2.15;;;;;;;;;;6904524;28;20042;-82
2021/05/07 17:21:42;;;;;;;5.57;2.20;;;;;;;;;;6879192;28;20061;-83
2021/05/07 17:25:02;;;;;;;4.38;1.90;;;;;;;;;;6894950;28;20560;-83
2021/05/07 17:28:25;;;;;;;5.47;1.98;;;;;;;;;;6894793;28;20543;-82
2021/05/07 17:31:45;;;;;;;8.93;2.33;;;;;;;;;;6895346;28;20041;-83
2021/05/07 17:35:06;;;;;;;5.53;1.75;;;;;;;;;;6890569;28;20057;-84
2021/05/07 17:38:27;;;;;;;4.40;1.55;;;;;;;;;;6896961;28;20022;-83
2021/05/07 17:41:47;;;;;;;6.22;2.08;;;;;;;;;;6898374;28;20041;-83
2021/05/07 17:45:10;;;;;;;3.65;2.13;;;;;;;;;;6898156;28;20113;-83
2021/05/07 17:48:30;;;;;;;6.38;1.95;;;;;;;;;;6896884;28;20110;-83
2021/05/07 17:51:50;;;;;;;5.78;2.40;;;;;;;;;;6892180;28;20030;-82
2021/05/07 17:55:13;;;;;;;6.20;2.40;;;;;;;;;;6892407;28;20062;-84
2021/05/07 17:58:33;;;;;;;4.90;2.05;;;;;;;;;;6893342;28;20038;-84
2021/05/07 18:01:54;;;;;;;6.68;1.95;;;;;;;;;;6893239;28;20034;-83
2021/05/07 18:05:14;;;;;;;7.20;1.80;;;;;;;;;;6891305;28;20117;-87
2021/05/07 18:08:35;;;;;;;5.97;2.30;;;;;;;;;;6891501;28;20034;-87
2021/05/07 18:11:57;;;;;;;11.88;2.33;;;;;;;;;;6893121;28;20060;-86
2021/05/07 18:15:18;;;;;;;5.07;1.83;;;;;;;;;;6893802;28;20041;-86
2021/05/07 18:18:40;;;;;;;6.80;2.20;;;;;;;;;;6897455;28;20035;-86
2021/05/07 18:22:00;;;;;;;8.63;2.42;;;;;;;;;;6873970;28;20061;-87
2021/05/07 18:25:20;;;;;;;10.02;2.30;;;;;;;;;;6898304;28;20027;-87
2021/05/07 18:28:41;;;;;;;11.05;2.72;;;;;;;;;;6898009;28;20425;-87
2021/05/07 18:32:01;;;;;;;8.93;1.88;;;;;;;;;;6875397;28;20452;-86
2021/05/07 18:35:22;;;;;;;10.75;2.00;;;;;;;;;;6892135;28;20080;-87
2021/05/07 18:38:42;;;;;;;8.52;2.35;;;;;;;;;;6903849;28;20077;-86
2021/05/07 18:42:04;;;;;;;10.23;2.38;;;;;;;;;;6896195;28;20468;-86
2021/05/07 18:45:24;;;;;;;4.35;1.90;;;;;;;;;;6892322;28;20030;-86
2021/05/07 18:48:44;;;;;;;14.75;2.00;;;;;;;;;;6893074;28;20138;-87
2021/05/07 18:52:06;;;;;;;4.85;1.90;;;;;;;;;;6890392;28;20022;-86
2021/05/07 18:55:28;;;;;;;7.50;1.92;;;;;;;;;;6890083;28;20046;-86
2021/05/07 18:58:48;;;;;;;7.22;2.30;;;;;;;;;;6892192;28;20038;-86
2021/05/07 19:02:09;;;;;;;10.25;2.20;;;;;;;;;;6883969;28;20141;-84
2021/05/07 19:05:29;;;;;;;5.20;2.10;;;;;;;;;;6891673;28;20038;-86
2021/05/07 19:08:50;;;;;;;13.63;2.42;;;;;;;;;;6896079;28;20053;-86
2021/05/07 19:12:11;;;;;;;5.38;2.40;;;;;;;;;;6896133;28;20041;-86
2021/05/07 19:15:35;;;;;;;9.27;2.30;;;;;;;;;;6899120;28;20140;-86
2021/05/07 19:18:56;;;;;;;7.90;2.10;;;;;;;;;;6893387;28;20041;-87
2021/05/07 19:22:16;;;;;;;5.82;2.17;;;;;;;;;;6892445;28;20058;-84
2021/05/07 19:25:38;;;;;;;7.13;2.47;;;;;;;;;;6893637;28;20117;-86
2021/05/07 19:28:59;;;;;;;13.48;3.75;;;;;;;;;;6892232;28;20073;-85
2021/05/07 19:32:19;;;;;;;8.02;4.70;;;;;;;;;;6872798;28;20436;-85
2021/05/07 19:35:39;;;;;;;17.73;5.30;;;;;;;;;;6891443;28;20045;-86
2021/05/07 19:39:00;;;;;;;14.18;6.97;;;;;;;;;;6891924;28;20121;-88
2021/05/07 19:42:20;;;;;;;25.00;7.90;;;;;;;;;;6885515;28;20030;-87
2021/05/07 19:45:42;;;;;;;26.48;11.45;;;;;;;;;;6872527;28;20047;-85
2021/05/07 19:49:02;;;;;;;32.15;12.85;;;;;;;;;;6878603;28;20034;-89
2021/05/07 19:52:23;;;;;;;22.63;11.73;;;;;;;;;;6885663;28;20030;-88
2021/05/07 19:55:43;;;;;;;23.70;11.82;;;;;;;;;;6879210;28;20160;-87
2021/05/07 19:59:04;;;;;;;22.00;11.25;;;;;;;;;;6877503;28;20089;-89
2021/05/07 20:02:24;;;;;;;22.95;10.57;;;;;;;;;;6897920;28;20106;-87
2021/05/07 20:05:46;;;;;;;21.02;10.68;;;;;;;;;;6865532;28;20034;-89